sensor_id;sensor_type;location;lat;lon;timestamp;pressure;altitude;pressure_sealevel;temperature;humidity
41383;BME280;27971;53.902;9.118;2022-11-11T00:05:32;102485.99999999999;;;20.87;27.01
41383;BME280;27971;53.902;9.118;2022-11-11T00:07:32;102482.0;;;21.34;25.88
41383;BME280;27971;53.902;9.118;2022-11-11T00:09:36;102486.99999999999;;;21.76;25.28
41383;BME280;27971;53.902;9.118;2022-11-11T00:11:39;102488.00000000001;;;22.14;24.8
41383;BME280;27971;53.902;9.118;2022-11-11T00:13:43;102493.0;;;22.76;24.4
41383;BME280;27971;53.902;9.118;2022-11-11T00:15:45;102492.0;;;22.79;24.28
41383;BME280;27971;53.902;9.118;2022-11-11T00:17:47;102493.0;;;22.78;24.31
41383;BME280;27971;53.902;9.118;2022-11-11T00:19:50;102493.0;;;22.66;24.35
41383;BME280;27971;53.902;9.118;2022-11-11T00:21:52;102493.0;;;22.7;24.34
41383;BME280;27971;53.902;9.118;2022-11-11T00:23:55;102497.0;;;22.86;24.11
41383;BME280;27971;53.902;9.118;2022-11-11T00:25:59;102497.0;;;22.84;24.18
41383;BME280;27971;53.902;9.118;2022-11-11T00:28:00;102495.0;;;22.72;24.21
41383;BME280;27971;53.902;9.118;2022-11-11T00:30:02;102489.00000000001;;;23.88;24.27
41383;BME280;27971;53.902;9.118;2022-11-11T00:32:05;102489.00000000001;;;26.24;24.83
41383;BME280;27971;53.902;9.118;2022-11-11T00:34:07;102492.0;;;25.82;25.92
41383;BME280;27971;53.902;9.118;2022-11-11T00:36:09;102501.0;;;25.61;26.56
41383;BME280;27971;53.902;9.118;2022-11-11T00:38:13;102508.0;;;25.4;26.98
41383;BME280;27971;53.902;9.118;2022-11-11T00:40:14;102508.99999999999;;;25.14;27.43
41383;BME280;27971;53.902;9.118;2022-11-11T00:42:16;102510.99999999999;;;25.18;27.6
41383;BME280;27971;53.902;9.118;2022-11-11T00:44:20;102520.0;;;24.91;27.82
41383;BME280;27971;53.902;9.118;2022-11-11T00:46:22;102531.0;;;24.95;27.9
41383;BME280;27971;53.902;9.118;2022-11-11T00:48:24;102535.99999999999;;;24.89;27.99
41383;BME280;27971;53.902;9.118;2022-11-11T00:50:28;102535.99999999999;;;24.8;28.05
41383;BME280;27971;53.902;9.118;2022-11-11T00:52:31;102534.99999999999;;;24.79;28.02
41383;BME280;27971;53.902;9.118;2022-11-11T00:54:33;102533.0;;;24.77;28.05
41383;BME280;27971;53.902;9.118;2022-11-11T00:56:35;102529.0;;;24.46;28.31
41383;BME280;27971;53.902;9.118;2022-11-11T00:58:38;102521.0;;;24.7;28.13
41383;BME280;27971;53.902;9.118;2022-11-11T01:00:40;102522.0;;;24.78;28.09
41383;BME280;27971;53.902;9.118;2022-11-11T01:02:43;102524.0;;;24.62;28.2
41383;BME280;27971;53.902;9.118;2022-11-11T01:04:47;102526.0;;;24.62;28.18
41383;BME280;27971;53.902;9.118;2022-11-11T01:06:49;102530.0;;;24.6;28.14
41383;BME280;27971;53.902;9.118;2022-11-11T01:08:52;102538.00000000001;;;24.54;28.28
41383;BME280;27971;53.902;9.118;2022-11-11T01:10:54;102541.00000000001;;;24.4;28.44
41383;BME280;27971;53.902;9.118;2022-11-11T01:12:58;102538.00000000001;;;24.4;28.51
41383;BME280;27971;53.902;9.118;2022-11-11T01:15:00;102532.0;;;24.33;28.58
41383;BME280;27971;53.902;9.118;2022-11-11T01:17:03;102532.0;;;24.35;28.57
41383;BME280;27971;53.902;9.118;2022-11-11T01:19:05;102532.0;;;24.43;28.62
41383;BME280;27971;53.902;9.118;2022-11-11T01:21:11;102533.0;;;24.39;28.65
41383;BME280;27971;53.902;9.118;2022-11-11T01:23:12;102536.99999999999;;;24.37;28.67
41383;BME280;27971;53.902;9.118;2022-11-11T01:25:13;102539.00000000001;;;24.34;28.69
41383;BME280;27971;53.902;9.118;2022-11-11T01:27:15;102534.99999999999;;;24.48;28.63
41383;BME280;27971;53.902;9.118;2022-11-11T01:29:18;102538.00000000001;;;24.45;28.66
41383;BME280;27971;53.902;9.118;2022-11-11T01:31:22;102535.99999999999;;;24.34;28.69
41383;BME280;27971;53.902;9.118;2022-11-11T01:33:22;102531.0;;;24.39;28.7
41383;BME280;27971;53.902;9.118;2022-11-11T01:35:25;102531.0;;;24.41;28.65
41383;BME280;27971;53.902;9.118;2022-11-11T01:37:27;102528.0;;;24.24;28.79
41383;BME280;27971;53.902;9.118;2022-11-11T01:39:30;102526.0;;;24.31;28.68
41383;BME280;27971;53.902;9.118;2022-11-11T01:41:34;102524.0;;;24.21;28.84
41383;BME280;27971;53.902;9.118;2022-11-11T01:43:35;102524.0;;;24.27;28.84
41383;BME280;27971;53.902;9.118;2022-11-11T01:45:55;102522.0;;;24.14;28.89
41383;BME280;27971;53.902;9.118;2022-11-11T01:47:40;102518.0;;;24.42;28.95
41383;BME280;27971;53.902;9.118;2022-11-11T01:49:48;102511.99999999999;;;24.28;28.86
41383;BME280;27971;53.902;9.118;2022-11-11T01:51:52;102508.99999999999;;;24.46;28.81
41383;BME280;27971;53.902;9.118;2022-11-11T01:53:54;102506.0;;;24.38;28.86
41383;BME280;27971;53.902;9.118;2022-11-11T01:55:51;102507.0;;;24.34;28.89
41383;BME280;27971;53.902;9.118;2022-11-11T01:57:56;102507.0;;;24.38;28.8
41383;BME280;27971;53.902;9.118;2022-11-11T02:00:02;102513.00000000001;;;24.29;28.91
41383;BME280;27971;53.902;9.118;2022-11-11T02:02:04;102517.0;;;24.29;28.9
41383;BME280;27971;53.902;9.118;2022-11-11T02:04:05;102514.00000000001;;;24.27;28.89
41383;BME280;27971;53.902;9.118;2022-11-11T02:06:07;102519.0;;;24.26;28.99
41383;BME280;27971;53.902;9.118;2022-11-11T02:08:11;102522.0;;;24.35;28.88
41383;BME280;27971;53.902;9.118;2022-11-11T02:10:12;102517.0;;;24.26;28.97
41383;BME280;27971;53.902;9.118;2022-11-11T02:12:15;102515.00000000001;;;24.32;28.92
41383;BME280;27971;53.902;9.118;2022-11-11T02:14:17;102516.00000000001;;;24.33;28.96
41383;BME280;27971;53.902;9.118;2022-11-11T02:16:19;102515.00000000001;;;24.19;29.0
41383;BME280;27971;53.902;9.118;2022-11-11T02:18:22;102516.00000000001;;;24.24;28.97
41383;BME280;27971;53.902;9.118;2022-11-11T02:20:26;102519.0;;;24.32;28.94
41383;BME280;27971;53.902;9.118;2022-11-11T02:22:34;102522.0;;;24.22;28.97
41383;BME280;27971;53.902;9.118;2022-11-11T02:24:31;102522.0;;;24.17;29.04
41383;BME280;27971;53.902;9.118;2022-11-11T02:26:35;102526.0;;;24.2;29.11
41383;BME280;27971;53.902;9.118;2022-11-11T02:28:36;102526.0;;;24.27;28.85
41383;BME280;27971;53.902;9.118;2022-11-11T02:30:38;102532.0;;;24.14;29.04
41383;BME280;27971;53.902;9.118;2022-11-11T02:32:42;102538.00000000001;;;23.96;29.23
41383;BME280;27971;53.902;9.118;2022-11-11T02:34:44;102538.00000000001;;;23.03;30.07
41383;BME280;27971;53.902;9.118;2022-11-11T02:36:46;102535.99999999999;;;22.18;30.91
41383;BME280;27971;53.902;9.118;2022-11-11T02:38:49;102534.99999999999;;;22.13;31.09
41383;BME280;27971;53.902;9.118;2022-11-11T02:40:51;102530.0;;;22.41;30.83
41383;BME280;27971;53.902;9.118;2022-11-11T02:42:54;102526.0;;;22.02;31.14
41383;BME280;27971;53.902;9.118;2022-11-11T02:44:56;102527.0;;;22.39;30.84
41383;BME280;27971;53.902;9.118;2022-11-11T02:46:59;102529.0;;;22.87;30.39
41383;BME280;27971;53.902;9.118;2022-11-11T02:49:01;102530.0;;;23.07;30.15
41383;BME280;27971;53.902;9.118;2022-11-11T02:51:04;102533.0;;;22.36;30.79
41383;BME280;27971;53.902;9.118;2022-11-11T02:53:06;102534.99999999999;;;22.32;30.82
41383;BME280;27971;53.902;9.118;2022-11-11T02:55:08;102540.00000000001;;;22.67;30.54
41383;BME280;27971;53.902;9.118;2022-11-11T02:57:11;102542.0;;;23.06;30.12
41383;BME280;27971;53.902;9.118;2022-11-11T02:59:13;102539.00000000001;;;23.06;30.08
41383;BME280;27971;53.902;9.118;2022-11-11T03:01:16;102535.99999999999;;;22.91;30.19
41383;BME280;27971;53.902;9.118;2022-11-11T03:03:19;102538.00000000001;;;23.2;29.92
41383;BME280;27971;53.902;9.118;2022-11-11T03:05:21;102535.99999999999;;;22.95;30.1
41383;BME280;27971;53.902;9.118;2022-11-11T03:07:24;102543.0;;;23.12;29.94
41383;BME280;27971;53.902;9.118;2022-11-11T03:09:27;102546.0;;;23.26;29.81
41383;BME280;27971;53.902;9.118;2022-11-11T03:11:29;102550.0;;;23.29;29.78
41383;BME280;27971;53.902;9.118;2022-11-11T03:13:32;102550.0;;;23.1;29.94
41383;BME280;27971;53.902;9.118;2022-11-11T03:15:34;102549.0;;;23.25;29.81
41383;BME280;27971;53.902;9.118;2022-11-11T03:17:37;102549.0;;;23.28;29.77
41383;BME280;27971;53.902;9.118;2022-11-11T03:19:40;102544.0;;;22.92;30.06
41383;BME280;27971;53.902;9.118;2022-11-11T03:21:42;102541.00000000001;;;23.21;29.77
41383;BME280;27971;53.902;9.118;2022-11-11T03:23:44;102540.00000000001;;;23.99;29.05
41383;BME280;27971;53.902;9.118;2022-11-11T03:25:47;102536.99999999999;;;24.02;29.02
41383;BME280;27971;53.902;9.118;2022-11-11T03:27:49;102536.99999999999;;;24.1;28.99
41383;BME280;27971;53.902;9.118;2022-11-11T03:29:52;102536.99999999999;;;24.25;28.92
41383;BME280;27971;53.902;9.118;2022-11-11T03:31:55;102533.99999999999;;;24.4;28.82
41383;BME280;27971;53.902;9.118;2022-11-11T03:33:58;102534.99999999999;;;24.36;28.92
41383;BME280;27971;53.902;9.118;2022-11-11T03:36:00;102534.99999999999;;;24.4;28.86
41383;BME280;27971;53.902;9.118;2022-11-11T03:38:03;102528.0;;;24.34;28.93
41383;BME280;27971;53.902;9.118;2022-11-11T03:40:06;102529.0;;;24.34;28.96
41383;BME280;27971;53.902;9.118;2022-11-11T03:42:08;102532.0;;;24.34;28.92
41383;BME280;27971;53.902;9.118;2022-11-11T03:44:10;102532.0;;;24.44;28.79
41383;BME280;27971;53.902;9.118;2022-11-11T03:46:12;102533.0;;;24.45;28.77
41383;BME280;27971;53.902;9.118;2022-11-11T03:48:15;102533.0;;;24.43;28.81
41383;BME280;27971;53.902;9.118;2022-11-11T03:50:17;102533.0;;;24.44;28.83
41383;BME280;27971;53.902;9.118;2022-11-11T03:52:20;102532.0;;;24.26;28.96
41383;BME280;27971;53.902;9.118;2022-11-11T03:54:22;102535.99999999999;;;24.25;29.03
41383;BME280;27971;53.902;9.118;2022-11-11T03:56:24;102536.99999999999;;;24.27;29.03
41383;BME280;27971;53.902;9.118;2022-11-11T03:58:26;102542.0;;;24.25;29.03
41383;BME280;27971;53.902;9.118;2022-11-11T04:00:29;102550.0;;;24.2;29.05
41383;BME280;27971;53.902;9.118;2022-11-11T04:02:31;102554.0;;;24.28;28.92
41383;BME280;27971;53.902;9.118;2022-11-11T04:04:33;102558.99999999999;;;24.02;29.21
41383;BME280;27971;53.902;9.118;2022-11-11T04:06:36;102559.99999999999;;;24.12;29.03
41383;BME280;27971;53.902;9.118;2022-11-11T04:08:38;102558.0;;;24.07;29.12
41383;BME280;27971;53.902;9.118;2022-11-11T04:10:40;102558.0;;;24.09;29.13
41383;BME280;27971;53.902;9.118;2022-11-11T04:12:43;102555.0;;;23.82;29.39
41383;BME280;27971;53.902;9.118;2022-11-11T04:14:45;102556.0;;;23.87;29.45
41383;BME280;27971;53.902;9.118;2022-11-11T04:16:48;102558.0;;;23.93;29.28
41383;BME280;27971;53.902;9.118;2022-11-11T04:18:50;102558.99999999999;;;23.66;29.56
41383;BME280;27971;53.902;9.118;2022-11-11T04:20:52;102559.99999999999;;;23.52;29.65
41383;BME280;27971;53.902;9.118;2022-11-11T04:22:56;102557.0;;;23.76;29.5
41383;BME280;27971;53.902;9.118;2022-11-11T04:24:58;102556.0;;;23.56;29.66
41383;BME280;27971;53.902;9.118;2022-11-11T04:27:03;102557.0;;;23.39;29.71
41383;BME280;27971;53.902;9.118;2022-11-11T04:29:04;102557.0;;;23.49;29.67
41383;BME280;27971;53.902;9.118;2022-11-11T04:31:06;102554.0;;;23.3;29.75
41383;BME280;27971;53.902;9.118;2022-11-11T04:33:10;102555.0;;;23.53;29.68
41383;BME280;27971;53.902;9.118;2022-11-11T04:35:13;102557.0;;;23.35;29.71
41383;BME280;27971;53.902;9.118;2022-11-11T04:37:16;102557.0;;;23.36;29.85
41383;BME280;27971;53.902;9.118;2022-11-11T04:39:17;102558.0;;;23.32;29.79
41383;BME280;27971;53.902;9.118;2022-11-11T04:41:20;102555.0;;;23.34;29.81
41383;BME280;27971;53.902;9.118;2022-11-11T04:43:22;102552.0;;;23.36;29.77
41383;BME280;27971;53.902;9.118;2022-11-11T04:45:24;102549.0;;;23.26;29.78
41383;BME280;27971;53.902;9.118;2022-11-11T04:47:28;102540.00000000001;;;23.18;29.83
41383;BME280;27971;53.902;9.118;2022-11-11T04:49:30;102540.00000000001;;;23.19;29.8
41383;BME280;27971;53.902;9.118;2022-11-11T04:51:32;102538.00000000001;;;23.13;29.84
41383;BME280;27971;53.902;9.118;2022-11-11T04:53:35;102534.99999999999;;;23.23;29.86
41383;BME280;27971;53.902;9.118;2022-11-11T04:55:37;102532.0;;;23.18;29.85
41383;BME280;27971;53.902;9.118;2022-11-11T04:57:41;102530.0;;;23.16;29.8
41383;BME280;27971;53.902;9.118;2022-11-11T04:59:42;102532.0;;;23.08;29.92
41383;BME280;27971;53.902;9.118;2022-11-11T05:01:45;102534.99999999999;;;23.02;29.97
41383;BME280;27971;53.902;9.118;2022-11-11T05:03:47;102536.99999999999;;;23.12;29.94
41383;BME280;27971;53.902;9.118;2022-11-11T05:05:51;102535.99999999999;;;23.06;29.89
41383;BME280;27971;53.902;9.118;2022-11-11T05:07:53;102536.99999999999;;;23.17;29.85
41383;BME280;27971;53.902;9.118;2022-11-11T05:09:56;102539.00000000001;;;23.16;29.85
41383;BME280;27971;53.902;9.118;2022-11-11T05:11:58;102539.00000000001;;;23.1;29.92
41383;BME280;27971;53.902;9.118;2022-11-11T05:14:02;102540.00000000001;;;23.02;30.05
41383;BME280;27971;53.902;9.118;2022-11-11T05:16:04;102542.0;;;23.09;29.92
41383;BME280;27971;53.902;9.118;2022-11-11T05:18:08;102535.99999999999;;;23.02;29.95
41383;BME280;27971;53.902;9.118;2022-11-11T05:20:09;102538.00000000001;;;23.0;29.91
41383;BME280;27971;53.902;9.118;2022-11-11T05:22:15;102533.99999999999;;;22.93;29.98
41383;BME280;27971;53.902;9.118;2022-11-11T05:24:14;102536.99999999999;;;22.99;30.05
41383;BME280;27971;53.902;9.118;2022-11-11T05:26:17;102535.99999999999;;;22.96;29.91
41383;BME280;27971;53.902;9.118;2022-11-11T05:28:19;102533.99999999999;;;22.92;29.94
41383;BME280;27971;53.902;9.118;2022-11-11T05:30:23;102531.0;;;23.16;29.85
41383;BME280;27971;53.902;9.118;2022-11-11T05:32:25;102534.99999999999;;;23.08;29.91
41383;BME280;27971;53.902;9.118;2022-11-11T05:34:27;102535.99999999999;;;22.79;30.04
41383;BME280;27971;53.902;9.118;2022-11-11T05:36:29;102540.00000000001;;;23.26;29.78
41383;BME280;27971;53.902;9.118;2022-11-11T05:38:32;102543.0;;;23.43;29.58
41383;BME280;27971;53.902;9.118;2022-11-11T05:40:35;102538.00000000001;;;23.15;29.82
41383;BME280;27971;53.902;9.118;2022-11-11T05:42:40;102535.99999999999;;;23.09;29.89
41383;BME280;27971;53.902;9.118;2022-11-11T05:44:39;102540.00000000001;;;23.18;29.94
41383;BME280;27971;53.902;9.118;2022-11-11T05:46:42;102544.0;;;23.25;29.88
41383;BME280;27971;53.902;9.118;2022-11-11T05:48:45;102542.0;;;23.59;29.75
41383;BME280;27971;53.902;9.118;2022-11-11T05:50:47;102547.0;;;23.12;30.28
41383;BME280;27971;53.902;9.118;2022-11-11T05:52:49;102553.0;;;23.05;30.48
41383;BME280;27971;53.902;9.118;2022-11-11T05:54:52;102554.0;;;22.98;30.83
41383;BME280;27971;53.902;9.118;2022-11-11T05:56:54;102558.0;;;22.6;31.14
41383;BME280;27971;53.902;9.118;2022-11-11T05:58:57;102563.00000000001;;;23.24;30.49
41383;BME280;27971;53.902;9.118;2022-11-11T06:00:59;102566.00000000001;;;23.38;30.29
41383;BME280;27971;53.902;9.118;2022-11-11T06:03:02;102570.0;;;23.22;30.41
41383;BME280;27971;53.902;9.118;2022-11-11T06:05:05;102574.0;;;23.29;30.43
41383;BME280;27971;53.902;9.118;2022-11-11T06:07:08;102573.0;;;23.04;30.52
41383;BME280;27971;53.902;9.118;2022-11-11T06:09:10;102578.0;;;23.03;30.53
41383;BME280;27971;53.902;9.118;2022-11-11T06:11:13;102575.0;;;23.35;30.22
41383;BME280;27971;53.902;9.118;2022-11-11T06:13:15;102582.0;;;23.1;30.31
41383;BME280;27971;53.902;9.118;2022-11-11T06:15:18;102582.0;;;23.09;30.32
41383;BME280;27971;53.902;9.118;2022-11-11T06:17:21;102584.99999999999;;;23.32;29.88
41383;BME280;27971;53.902;9.118;2022-11-11T06:19:23;102592.0;;;22.4;30.51
41383;BME280;27971;53.902;9.118;2022-11-11T06:21:25;102599.0;;;21.78;31.13
41383;BME280;27971;53.902;9.118;2022-11-11T06:23:28;102602.0;;;22.39;30.7
41383;BME280;27971;53.902;9.118;2022-11-11T06:25:32;102608.99999999999;;;22.3;30.7
41383;BME280;27971;53.902;9.118;2022-11-11T06:27:33;102613.00000000001;;;22.75;30.12
41383;BME280;27971;53.902;9.118;2022-11-11T06:29:35;102618.0;;;22.99;29.79
41383;BME280;27971;53.902;9.118;2022-11-11T06:31:38;102618.0;;;22.6;29.68
41383;BME280;27971;53.902;9.118;2022-11-11T06:33:41;102619.0;;;23.14;29.07
41383;BME280;27971;53.902;9.118;2022-11-11T06:35:43;102620.0;;;23.68;28.66
41383;BME280;27971;53.902;9.118;2022-11-11T06:37:45;102627.0;;;24.14;28.02
41383;BME280;27971;53.902;9.118;2022-11-11T06:39:49;102628.0;;;23.07;28.78
41383;BME280;27971;53.902;9.118;2022-11-11T06:41:51;102626.0;;;23.26;28.47
41383;BME280;27971;53.902;9.118;2022-11-11T06:43:53;102623.0;;;23.64;28.09
41383;BME280;27971;53.902;9.118;2022-11-11T06:45:56;102624.0;;;23.26;28.27
41383;BME280;27971;53.902;9.118;2022-11-11T06:47:58;102623.0;;;23.65;27.89
41383;BME280;27971;53.902;9.118;2022-11-11T06:50:01;102624.0;;;23.34;28.07
41383;BME280;27971;53.902;9.118;2022-11-11T06:52:03;102625.0;;;23.38;27.98
41383;BME280;27971;53.902;9.118;2022-11-11T06:54:06;102626.0;;;23.8;27.59
41383;BME280;27971;53.902;9.118;2022-11-11T06:56:09;102628.0;;;23.53;27.76
41383;BME280;27971;53.902;9.118;2022-11-11T06:58:12;102628.0;;;23.57;27.72
41383;BME280;27971;53.902;9.118;2022-11-11T07:00:14;102628.0;;;23.77;27.57
41383;BME280;27971;53.902;9.118;2022-11-11T07:02:16;102633.0;;;23.87;27.54
41383;BME280;27971;53.902;9.118;2022-11-11T07:04:18;102633.0;;;23.56;27.77
41383;BME280;27971;53.902;9.118;2022-11-11T07:06:20;102638.00000000001;;;23.44;27.83
41383;BME280;27971;53.902;9.118;2022-11-11T07:08:24;102642.0;;;23.7;27.65
41383;BME280;27971;53.902;9.118;2022-11-11T07:10:26;102641.00000000001;;;24.18;27.22
41383;BME280;27971;53.902;9.118;2022-11-11T07:12:30;102648.0;;;23.95;27.5
41383;BME280;27971;53.902;9.118;2022-11-11T07:14:33;102651.0;;;23.63;27.76
41383;BME280;27971;53.902;9.118;2022-11-11T07:16:35;102654.0;;;23.78;27.64
41383;BME280;27971;53.902;9.118;2022-11-11T07:18:37;102657.0;;;23.56;27.79
41383;BME280;27971;53.902;9.118;2022-11-11T07:20:40;102657.0;;;23.14;28.35
41383;BME280;27971;53.902;9.118;2022-11-11T07:22:42;102658.99999999999;;;23.06;28.45
41383;BME280;27971;53.902;9.118;2022-11-11T07:24:45;102660.99999999999;;;23.15;28.25
41383;BME280;27971;53.902;9.118;2022-11-11T07:26:47;102665.00000000001;;;23.54;27.88
41383;BME280;27971;53.902;9.118;2022-11-11T07:28:51;102666.00000000001;;;23.8;27.67
41383;BME280;27971;53.902;9.118;2022-11-11T07:30:54;102670.0;;;23.68;27.8
41383;BME280;27971;53.902;9.118;2022-11-11T07:32:58;102673.0;;;23.57;27.96
41383;BME280;27971;53.902;9.118;2022-11-11T07:35:00;102676.0;;;23.58;28.13
41383;BME280;27971;53.902;9.118;2022-11-11T07:37:03;102672.0;;;24.19;27.72
41383;BME280;27971;53.902;9.118;2022-11-11T07:39:05;102673.0;;;23.98;27.74
41383;BME280;27971;53.902;9.118;2022-11-11T07:41:07;102671.0;;;24.86;27.01
41383;BME280;27971;53.902;9.118;2022-11-11T07:43:09;102670.0;;;25.58;26.32
41383;BME280;27971;53.902;9.118;2022-11-11T07:45:12;102675.0;;;25.08;26.63
41383;BME280;27971;53.902;9.118;2022-11-11T07:47:15;102679.0;;;24.49;27.02
41383;BME280;27971;53.902;9.118;2022-11-11T07:49:17;102686.99999999999;;;23.56;27.77
41383;BME280;27971;53.902;9.118;2022-11-11T07:51:20;102685.99999999999;;;25.16;26.48
41383;BME280;27971;53.902;9.118;2022-11-11T07:53:22;102689.00000000001;;;25.3;26.23
41383;BME280;27971;53.902;9.118;2022-11-11T07:55:24;102691.00000000001;;;25.85;25.82
41383;BME280;27971;53.902;9.118;2022-11-11T07:57:28;102693.0;;;24.52;26.81
41383;BME280;27971;53.902;9.118;2022-11-11T07:59:30;102703.0;;;23.17;27.98
41383;BME280;27971;53.902;9.118;2022-11-11T08:01:32;102704.0;;;22.5;28.62
41383;BME280;27971;53.902;9.118;2022-11-11T08:03:35;102709.99999999999;;;23.01;28.23
41383;BME280;27971;53.902;9.118;2022-11-11T08:05:37;102708.99999999999;;;23.78;27.56
41383;BME280;27971;53.902;9.118;2022-11-11T08:07:39;102713.00000000001;;;23.79;27.62
41383;BME280;27971;53.902;9.118;2022-11-11T08:09:41;102710.99999999999;;;23.34;27.97
41383;BME280;27971;53.902;9.118;2022-11-11T08:11:44;102714.00000000001;;;23.79;27.64
41383;BME280;27971;53.902;9.118;2022-11-11T08:13:46;102720.0;;;23.46;27.79
41383;BME280;27971;53.902;9.118;2022-11-11T08:15:48;102719.0;;;23.78;27.56
41383;BME280;27971;53.902;9.118;2022-11-11T08:17:51;102719.0;;;24.19;27.23
41383;BME280;27971;53.902;9.118;2022-11-11T08:19:53;102716.00000000001;;;24.15;27.26
41383;BME280;27971;53.902;9.118;2022-11-11T08:21:55;102710.99999999999;;;23.74;27.51
41383;BME280;27971;53.902;9.118;2022-11-11T08:23:58;102711.99999999999;;;24.17;27.13
41383;BME280;27971;53.902;9.118;2022-11-11T08:26:02;102715.00000000001;;;24.61;26.79
41383;BME280;27971;53.902;9.118;2022-11-11T08:28:04;102721.0;;;23.98;27.23
41383;BME280;27971;53.902;9.118;2022-11-11T08:30:08;102723.0;;;24.45;26.88
41383;BME280;27971;53.902;9.118;2022-11-11T08:32:10;102723.0;;;24.7;26.66
41383;BME280;27971;53.902;9.118;2022-11-11T08:34:12;102722.0;;;25.01;26.34
41383;BME280;27971;53.902;9.118;2022-11-11T08:36:14;102722.0;;;25.37;26.05
41383;BME280;27971;53.902;9.118;2022-11-11T08:38:16;102726.0;;;25.49;25.87
41383;BME280;27971;53.902;9.118;2022-11-11T08:40:19;102728.0;;;25.88;25.53
41383;BME280;27971;53.902;9.118;2022-11-11T08:42:21;102734.99999999999;;;24.44;26.65
41383;BME280;27971;53.902;9.118;2022-11-11T08:44:23;102733.0;;;25.21;26.11
41383;BME280;27971;53.902;9.118;2022-11-11T08:46:26;102739.00000000001;;;25.21;26.18
41383;BME280;27971;53.902;9.118;2022-11-11T08:48:28;102745.0;;;24.02;26.98
41383;BME280;27971;53.902;9.118;2022-11-11T08:50:31;102739.00000000001;;;24.8;26.41
41383;BME280;27971;53.902;9.118;2022-11-11T08:52:34;102743.0;;;23.73;27.27
41383;BME280;27971;53.902;9.118;2022-11-11T08:54:36;102747.0;;;23.24;27.8
41383;BME280;27971;53.902;9.118;2022-11-11T08:56:38;102749.0;;;23.11;27.96
41383;BME280;27971;53.902;9.118;2022-11-11T08:58:41;102747.0;;;22.86;28.17
41383;BME280;27971;53.902;9.118;2022-11-11T09:00:44;102750.0;;;22.62;28.33
41383;BME280;27971;53.902;9.118;2022-11-11T09:02:46;102750.0;;;23.03;27.96
41383;BME280;27971;53.902;9.118;2022-11-11T09:04:50;102755.0;;;23.33;27.72
41383;BME280;27971;53.902;9.118;2022-11-11T09:06:53;102757.0;;;22.6;28.38
41383;BME280;27971;53.902;9.118;2022-11-11T09:08:55;102758.99999999999;;;22.75;28.21
41383;BME280;27971;53.902;9.118;2022-11-11T09:10:58;102761.99999999999;;;22.41;28.56
41383;BME280;27971;53.902;9.118;2022-11-11T09:13:00;102761.99999999999;;;22.47;28.49
41383;BME280;27971;53.902;9.118;2022-11-11T09:15:04;102765.00000000001;;;22.96;28.1
41383;BME280;27971;53.902;9.118;2022-11-11T09:17:06;102768.0;;;23.27;27.84
41383;BME280;27971;53.902;9.118;2022-11-11T09:19:08;102763.00000000001;;;22.77;28.25
41383;BME280;27971;53.902;9.118;2022-11-11T09:21:11;102766.00000000001;;;22.8;28.35
41383;BME280;27971;53.902;9.118;2022-11-11T09:23:14;102771.0;;;23.76;27.64
41383;BME280;27971;53.902;9.118;2022-11-11T09:25:18;102773.0;;;23.17;28.04
41383;BME280;27971;53.902;9.118;2022-11-11T09:27:20;102778.0;;;23.61;27.74
41383;BME280;27971;53.902;9.118;2022-11-11T09:29:23;102779.0;;;23.54;27.8
41383;BME280;27971;53.902;9.118;2022-11-11T09:31:25;102780.0;;;22.84;28.39
41383;BME280;27971;53.902;9.118;2022-11-11T09:33:27;102782.0;;;23.42;27.87
41383;BME280;27971;53.902;9.118;2022-11-11T09:35:30;102783.99999999999;;;23.52;27.7
41383;BME280;27971;53.902;9.118;2022-11-11T09:37:32;102784.99999999999;;;23.57;27.7
41383;BME280;27971;53.902;9.118;2022-11-11T09:39:38;102788.00000000001;;;23.54;27.68
41383;BME280;27971;53.902;9.118;2022-11-11T09:41:47;102790.00000000001;;;23.65;27.62
41383;BME280;27971;53.902;9.118;2022-11-11T09:43:47;102795.0;;;23.85;27.51
41383;BME280;27971;53.902;9.118;2022-11-11T09:45:54;102797.0;;;24.22;27.14
41383;BME280;27971;53.902;9.118;2022-11-11T09:47:53;102801.0;;;24.08;27.26
41383;BME280;27971;53.902;9.118;2022-11-11T09:49:57;102802.0;;;24.27;27.06
41383;BME280;27971;53.902;9.118;2022-11-11T09:51:54;102802.0;;;24.61;26.73
41383;BME280;27971;53.902;9.118;2022-11-11T09:53:57;102806.0;;;23.7;27.47
41383;BME280;27971;53.902;9.118;2022-11-11T09:56:00;102808.0;;;24.04;27.11
41383;BME280;27971;53.902;9.118;2022-11-11T09:58:02;102811.99999999999;;;24.12;27.07
41383;BME280;27971;53.902;9.118;2022-11-11T10:00:05;102813.00000000001;;;23.98;27.15
41383;BME280;27971;53.902;9.118;2022-11-11T10:02:11;102814.00000000001;;;24.59;26.53
41383;BME280;27971;53.902;9.118;2022-11-11T10:04:24;102817.0;;;24.23;26.86
41383;BME280;27971;53.902;9.118;2022-11-11T10:06:13;102821.0;;;24.08;27.0
41383;BME280;27971;53.902;9.118;2022-11-11T10:08:15;102825.0;;;24.16;26.84
41383;BME280;27971;53.902;9.118;2022-11-11T10:10:20;102826.0;;;24.75;26.36
41383;BME280;27971;53.902;9.118;2022-11-11T10:12:18;102831.0;;;23.79;27.11
41383;BME280;27971;53.902;9.118;2022-11-11T10:14:20;102833.0;;;23.29;27.57
41383;BME280;27971;53.902;9.118;2022-11-11T10:16:30;102834.99999999999;;;23.35;27.49
41383;BME280;27971;53.902;9.118;2022-11-11T10:18:36;102835.99999999999;;;23.26;27.62
41383;BME280;27971;53.902;9.118;2022-11-11T10:20:30;102835.99999999999;;;23.19;27.75
41383;BME280;27971;53.902;9.118;2022-11-11T10:22:33;102836.99999999999;;;23.46;27.44